Time;durP1;ratioP1;P1;durP2;ratioP2;P2;SDS_P1;SDS_P2;PMS_P1;PMS_P2;Temp;Humidity;BMP_temperature;BMP_pressure;BME280_temperature;BME280_humidity;BME280_pressure;Samples;Min_cycle;Max_cycle;Signal;HPM_P1;HPM_P2
2023/02/09 00:02:06;;;;;;;;;;;-1.00;99.90;;;;;;5064393;28;20398;-78
2023/02/09 00:04:33;;;;;;;;;;;-1.00;99.90;;;;;;5058055;28;19973;-81
2023/02/09 00:06:59;;;;;;;;;;;-1.00;99.90;;;;;;5065198;28;19927;-81
2023/02/09 00:09:25;;;;;;;;;;;-1.10;99.90;;;;;;5061126;28;19962;-81
2023/02/09 00:14:35;;;;;;;;;;;-1.30;99.90;;;;;;5086195;28;19993;-81
2023/02/09 00:17:01;;;;;;;;;;;;;;;;;;5063556;28;19924;-80
2023/02/09 00:19:27;;;;;;;;;;;;;;;;;;5064598;28;19986;-80
2023/02/09 00:21:53;;;;;;;;;;;;;;;;;;5097872;28;19923;-81
2023/02/09 00:24:18;;;;;;;;;;;;;;;;;;5084171;28;19916;-79
2023/02/09 00:26:44;;;;;;;;;;;;;;;;;;5084582;28;19919;-80
2023/02/09 00:29:10;;;;;;;;;;;;;;;;;;5081981;28;19916;-81
2023/02/09 00:31:36;;;;;;;;;;;;;;;;;;5096661;28;20967;-81
2023/02/09 00:34:02;;;;;;;;;;;;;;;;;;5099776;28;19912;-82
2023/02/09 00:36:28;;;;;;;;;;;;;;;;;;5097076;28;19918;-82
2023/02/09 00:38:54;;;;;;;;;;;;;;;;;;5096249;28;19923;-80
2023/02/09 00:42:04;;;;;;;;;;;-1.40;99.90;;;;;;5101576;28;19916;-81
2023/02/09 00:44:05;;;;;;;;;;;-1.50;99.90;;;;;;5097488;28;19920;-81
2023/02/09 00:46:30;;;;;;;;;;;-1.60;99.90;;;;;;5101182;28;19951;-81
2023/02/09 00:48:56;;;;;;;;;;;-1.70;99.90;;;;;;5083085;28;20007;-81
2023/02/09 00:51:21;;;;;;;;;;;-1.60;99.90;;;;;;5099961;28;19912;-81
2023/02/09 00:53:46;;;;;;;;;;;-1.50;99.90;;;;;;5077813;28;19958;-80
2023/02/09 00:56:12;;;;;;;;;;;-1.50;99.90;;;;;;5078851;28;19916;-81
2023/02/09 00:58:37;;;;;;;;;;;-1.60;99.90;;;;;;5095736;28;19916;-80
2023/02/09 01:01:03;;;;;;;;;;;-1.60;99.90;;;;;;5101834;28;19920;-81
2023/02/09 01:03:28;;;;;;;;;;;-1.60;99.90;;;;;;5098856;28;19942;-82
2023/02/09 01:05:54;;;;;;;;;;;;;;;;;;5078758;28;20401;-82
2023/02/09 01:08:20;;;;;;;;;;;;;;;;;;5100218;28;19912;-80
2023/02/09 01:10:46;;;;;;;;;;;;;;;;;;5088180;28;19912;-82
2023/02/09 01:13:12;;;;;;;;;;;;;;;;;;5092736;28;20319;-82
2023/02/09 01:15:38;;;;;;;;;;;;;;;;;;5094727;28;19973;-80
2023/02/09 01:18:04;;;;;;;;;;;;;;;;;;5095164;28;19912;-82
2023/02/09 01:20:30;;;;;;;;;;;;;;;;;;5105819;28;19916;-82
2023/02/09 01:22:55;;;;;;;;;;;;;;;;;;5099026;28;19913;-80
2023/02/09 01:25:21;;;;;;;;;;;;;;;;;;5093968;28;20296;-81
2023/02/09 01:27:47;;;;;;;;;;;;;;;;;;5079185;28;19935;-80
2023/02/09 01:30:13;;;;;;;;;;;;;;;;;;5097642;28;19912;-80
2023/02/09 01:32:39;;;;;;;;;;;;;;;;;;5096516;28;19942;-80
2023/02/09 01:35:05;;;;;;;;;;;;;;;;;;5102211;28;20007;-82
2023/02/09 01:37:31;;;;;;;;;;;;;;;;;;5090686;28;19930;-81
2023/02/09 01:39:57;;;;;;;;;;;;;;;;;;5096365;28;20380;-82
2023/02/09 01:42:23;;;;;;;;;;;;;;;;;;5082649;28;19912;-82
2023/02/09 01:44:49;;;;;;;;;;;;;;;;;;5096587;28;19912;-82
2023/02/09 01:47:14;;;;;;;;;;;;;;;;;;5102319;28;20424;-82
2023/02/09 01:49:40;;;;;;;;;;;;;;;;;;5080951;28;19912;-81
2023/02/09 01:52:06;;;;;;;;;;;;;;;;;;5097704;28;19913;-80
2023/02/09 01:54:32;;;;;;;;;;;;;;;;;;5100959;28;19908;-80
2023/02/09 01:56:58;;;;;;;;;;;;;;;;;;5079928;28;19912;-81
2023/02/09 01:59:24;;;;;;;;;;;;;;;;;;5101415;28;19931;-82
2023/02/09 02:01:50;;;;;;;;;;;;;;;;;;5094264;28;19920;-81
2023/02/09 02:04:16;;;;;;;;;;;;;;;;;;5100053;28;19912;-80
2023/02/09 02:06:41;;;;;;;;;;;;;;;;;;5080536;28;20003;-81
2023/02/09 02:09:07;;;;;;;;;;;;;;;;;;5081560;28;20438;-80
2023/02/09 02:11:34;;;;;;;;;;;;;;;;;;5092578;28;19912;-82
2023/02/09 02:14:00;;;;;;;;;;;;;;;;;;5081905;28;19915;-79
2023/02/09 02:16:26;;;;;;;;;;;;;;;;;;5095305;28;19919;-82
2023/02/09 02:18:52;;;;;;;;;;;;;;;;;;5093459;28;19916;-81
2023/02/09 02:21:18;;;;;;;;;;;;;;;;;;5028673;28;1823609;-81
2023/02/09 02:23:43;;;;;;;;;;;;;;;;;;5082359;28;20519;-82
2023/02/09 02:26:09;;;;;;;;;;;;;;;;;;5089125;28;19933;-80
2023/02/09 02:28:35;;;;;;;;;;;;;;;;;;5095796;28;19913;-80
2023/02/09 02:31:01;;;;;;;;;;;;;;;;;;5097889;28;19912;-81
2023/02/09 02:33:27;;;;;;;;;;;;;;;;;;5083104;28;19919;-80
2023/02/09 02:35:53;;;;;;;;;;;;;;;;;;5099468;28;19940;-82
2023/02/09 02:38:19;;;;;;;;;;;;;;;;;;5083970;28;19912;-82
2023/02/09 02:40:45;;;;;;;;;;;;;;;;;;5095644;28;19994;-81
2023/02/09 02:43:11;;;;;;;;;;;;;;;;;;5096508;28;19919;-82
2023/02/09 02:45:36;;;;;;;;;;;;;;;;;;5100328;28;19920;-82
2023/02/09 02:48:02;;;;;;;;;;;;;;;;;;5088440;28;19913;-82
2023/02/09 02:50:29;;;;;;;;;;;;;;;;;;5084788;28;20369;-81
2023/02/09 02:52:55;;;;;;;;;;;;;;;;;;5079193;28;19916;-82
2023/02/09 02:55:21;;;;;;;;;;;;;;;;;;5104130;28;19923;-82
2023/02/09 02:57:47;;;;;;;;;;;;;;;;;;5101890;28;19912;-81
2023/02/09 03:00:13;;;;;;;;;;;;;;;;;;5095330;28;20002;-81
2023/02/09 03:02:39;;;;;;;;;;;;;;;;;;5095843;28;19919;-81
2023/02/09 08:01:58;;;;;;;;;;;;;;;;;;5115643;22;19916;-64
2023/02/09 08:04:23;;;;;;;;;;;;;;;;;;5061554;28;19974;-66
2023/02/09 08:06:50;;;;;;;;;;;;;;;;;;5061447;28;19920;-65
2023/02/09 08:09:15;;;;;;;;;;;;;;;;;;5060153;28;20007;-65
2023/02/09 08:11:41;;;;;;;;;;;;;;;;;;5067057;28;20007;-65
2023/02/09 08:14:07;;;;;;;;;;;;;;;;;;5062792;28;19974;-65
2023/02/09 08:16:33;;;;;;;;;;;;;;;;;;5064112;28;20035;-65
2023/02/09 08:18:59;;;;;;;;;;;;;;;;;;5069290;28;19926;-66
2023/02/09 08:21:25;;;;;;;;;;;;;;;;;;5062532;28;19912;-66
2023/02/09 08:23:51;;;;;;;;;;;;;;;;;;5063889;28;20300;-64
2023/02/09 08:26:17;;;;;;;;;;;-2.90;99.90;;;;;;5069623;28;19916;-64
2023/02/09 08:28:44;;;;;;;;;;;-0.80;99.90;;;;;;5067187;28;19913;-64
2023/02/09 08:31:10;;;;;;;;;;;-0.80;99.90;;;;;;5069252;28;20288;-65
2023/02/09 08:33:35;;;;;;;;;;;-0.70;99.90;;;;;;5072911;28;19959;-66
2023/02/09 08:36:01;;;;;;;;;;;-0.70;99.90;;;;;;5071698;28;20388;-64
2023/02/09 08:38:26;;;;;;;;;;;-0.60;99.90;;;;;;5073556;28;19913;-65
2023/02/09 08:40:52;;;;;;;;;;;-0.60;99.90;;;;;;5070265;28;20001;-65
2023/02/09 08:43:17;;;;;;;;;;;-0.50;99.90;;;;;;5071597;28;20029;-65
2023/02/09 08:45:42;;;;;;;;;;;-0.40;99.90;;;;;;5070996;28;20392;-66
2023/02/09 08:48:09;;;;;;;;;;;-0.40;99.90;;;;;;5056090;28;20277;-65
2023/02/09 08:50:35;;;;;;;;;;;-0.20;99.90;;;;;;5072725;28;19916;-65
2023/02/09 08:53:01;;;;;;;;;;;-0.10;99.90;;;;;;5070026;28;20272;-63
2023/02/09 08:55:27;;;;;;;;;;;-0.10;99.90;;;;;;5068518;28;19909;-67
2023/02/09 08:57:53;;;;;;;;;;;0.00;99.90;;;;;;5074103;28;19970;-65
2023/02/09 09:00:19;;;;;;;;;;;0.10;99.90;;;;;;5054198;28;20368;-65
2023/02/09 09:02:44;;;;;;;;;;;0.20;99.90;;;;;;5071188;28;19935;-65
2023/02/09 09:05:09;;;;;;;;;;;0.30;99.90;;;;;;5070996;28;19934;-65
2023/02/09 09:07:35;;;;;;;;;;;0.40;99.90;;;;;;5072916;28;19959;-65
2023/02/09 09:10:00;;;;;;;;;;;0.50;99.90;;;;;;5070042;28;20337;-65
2023/02/09 09:12:27;;;;;;;;;;;0.60;99.90;;;;;;5055621;28;19912;-65
2023/02/09 09:14:53;;;;;;;;;;;0.60;99.90;;;;;;5071603;28;19918;-65
2023/02/09 09:17:18;;;;;;;;;;;0.70;99.90;;;;;;5071693;28;19913;-64
2023/02/09 09:19:44;;;;;;;;;;;0.70;99.90;;;;;;5068541;28;19923;-64
2023/02/09 09:22:09;;;;;;;;;;;0.80;99.90;;;;;;5069462;28;20400;-65
2023/02/09 09:24:39;;;;;;;;;;;0.90;99.90;;;;;;5067412;28;19971;-65
2023/02/09 09:27:05;;;;;;;;;;;1.00;99.90;;;;;;5067804;28;20015;-64
2023/02/09 09:29:33;;;;;;;;;;;1.10;99.90;;;;;;5065257;28;19916;-64
2023/02/09 09:31:58;;;;;;;;;;;1.10;99.90;;;;;;5063138;28;19913;-64
2023/02/09 09:34:24;;;;;;;;;;;1.30;99.90;;;;;;5063768;28;19912;-64
2023/02/09 09:36:49;;;;;;;;;;;1.40;99.90;;;;;;5063912;28;20053;-64
2023/02/09 09:39:15;;;;;;;;;;;1.50;99.90;;;;;;5065056;28;20368;-64
2023/02/09 09:41:40;;;;;;;;;;;1.60;99.90;;;;;;5070406;28;20332;-64
2023/02/09 09:44:15;;;;;;;;;;;1.70;99.90;;;;;;5070627;28;20011;-64
2023/02/09 09:46:44;;;;;;;;;;;1.80;99.90;;;;;;5070455;28;19912;-64
2023/02/09 09:49:23;;;;;;;;;;;1.90;99.90;;;;;;5072065;28;19915;-64
2023/02/09 09:51:52;;;;;;;;;;;2.10;99.90;;;;;;5066032;28;19950;-63
2023/02/09 09:54:23;;;;;;;;;;;2.10;99.90;;;;;;5053755;28;19920;-64
2023/02/09 09:56:49;;;;;;;;;;;2.10;99.90;;;;;;5068137;28;20326;-64
2023/02/09 09:59:34;;;;;;;;;;;2.20;99.90;;;;;;5066103;28;20023;-64
2023/02/09 10:02:02;;;;;;;;;;;2.30;99.90;;;;;;5068012;28;19927;-63
2023/02/09 10:04:27;;;;;;;;;;;2.40;99.90;;;;;;5071362;28;20007;-64
2023/02/09 10:06:57;;;;;;;;;;;2.50;99.90;;;;;;5070565;28;20137;-64
2023/02/09 10:09:36;;;;;;;;;;;2.70;99.90;;;;;;5053650;28;19989;-63
2023/02/09 10:12:16;;;;;;;;;;;2.60;99.90;;;;;;5066677;28;20434;-64
2023/02/09 10:14:42;;;;;;;;;;;2.80;99.90;;;;;;5067451;28;19912;-65
2023/02/09 10:17:07;;;;;;;;;;;2.90;99.90;;;;;;5069848;28;19917;-64
2023/02/09 10:19:33;;;;;;;;;;;3.00;99.90;;;;;;5068785;28;19916;-64
2023/02/09 10:21:58;;;;;;;;;;;3.20;99.90;;;;;;5072014;28;19908;-63
2023/02/09 10:24:25;;;;;;;;;;;3.30;99.90;;;;;;5069430;28;19913;-63
2023/02/09 10:27:19;;;;;;;;;;;3.30;99.90;;;;;;5070652;28;20386;-64
2023/02/09 10:29:45;;;;;;;;;;;3.50;99.90;;;;;;5057568;28;19913;-65
2023/02/09 10:32:14;;;;;;;;;;;3.70;99.90;;;;;;5068403;28;19912;-64
2023/02/09 10:35:02;;;;;;;;;;;3.90;99.90;;;;;;5065721;28;19917;-64
2023/02/09 10:37:38;;;;;;;;;;;4.10;99.90;;;;;;5069943;28;19999;-65
2023/02/09 10:40:14;;;;;;;;;;;4.20;99.90;;;;;;5051474;28;20070;-64
2023/02/09 10:42:42;;;;;;;;;;;4.30;99.90;;;;;;5066275;28;19915;-64
2023/02/09 10:45:20;;;;;;;;;;;4.40;99.90;;;;;;5061441;28;19956;-64
2023/02/09 10:47:59;;;;;;;;;;;4.50;99.90;;;;;;5067684;28;19916;-64
2023/02/09 10:50:25;;;;;;;;;;;4.60;99.90;;;;;;5060915;28;19917;-63
2023/02/09 10:52:55;;;;;;;;;;;4.60;99.90;;;;;;5046958;28;19923;-63
2023/02/09 10:55:24;;;;;;;;;;;4.40;99.90;;;;;;5065438;28;19921;-65
2023/02/09 10:57:50;;;;;;;;;;;4.50;99.90;;;;;;5069525;28;20499;-65
2023/02/09 11:00:15;;;;;;;;;;;4.60;99.90;;;;;;5064875;28;20019;-64
2023/02/09 11:02:47;;;;;;;;;;;4.40;99.90;;;;;;5066680;28;20300;-64
2023/02/09 11:05:21;;;;;;;;;;;4.50;99.90;;;;;;5068183;28;19912;-64
2023/02/09 11:08:07;;;;;;;;;;;4.70;99.90;;;;;;5065683;28;20461;-63
2023/02/09 11:10:34;;;;;;;;;;;4.70;99.90;;;;;;5047905;28;20360;-64
2023/02/09 11:12:59;;;;;;;;;;;4.90;99.90;;;;;;5066740;28;19912;-64
2023/02/09 11:15:26;;;;;;;;;;;4.90;99.90;;;;;;5062379;28;19939;-64
2023/02/09 11:17:57;;;;;;;;;;;5.00;99.90;;;;;;5065315;28;19920;-64
2023/02/09 11:20:39;;;;;;;;;;;4.90;99.90;;;;;;5065472;28;19928;-64
2023/02/09 11:23:10;;;;;;;;;;;5.20;99.90;;;;;;5067271;28;19908;-64
2023/02/09 11:25:49;;;;;;;;;;;5.30;99.90;;;;;;5056503;28;19920;-63
2023/02/09 11:28:23;;;;;;;;;;;5.40;99.90;;;;;;5053223;28;19917;-62
2023/02/09 11:31:02;;;;;;;;;;;5.40;99.90;;;;;;5061727;28;20291;-64
2023/02/09 11:33:46;;;;;;;;;;;5.50;99.90;;;;;;5040585;28;19917;-63
2023/02/09 11:36:22;;;;;;;;;;;5.60;99.90;;;;;;5058718;28;20479;-64
2023/02/09 11:38:53;;;;;;;;;;;5.50;99.90;;;;;;5052476;28;19928;-63
2023/02/09 11:44:31;;;;;;;;;;;5.70;99.90;;;;;;5062630;28;20311;-63
2023/02/09 11:47:00;;;;;;;;;;;5.80;99.90;;;;;;5060142;28;19920;-63
2023/02/09 11:49:28;;;;;;;;;;;5.80;99.90;;;;;;5066928;28;19923;-62
2023/02/09 11:51:55;;;;;;;;;;;6.00;99.90;;;;;;5065411;28;20368;-62
2023/02/09 11:54:23;;;;;;;;;;;5.80;99.90;;;;;;5061651;28;19917;-63
2023/02/09 11:56:50;;;;;;;;;;;5.80;99.90;;;;;;5063647;28;19917;-63
2023/02/09 11:59:27;;;;;;;;;;;5.90;99.90;;;;;;5061710;28;19920;-62
2023/02/09 12:02:08;;;;;;;;;;;5.90;99.90;;;;;;5059437;28;19975;-63
2023/02/09 12:04:48;;;;;;;;;;;6.00;99.90;;;;;;5065672;28;20313;-64
2023/02/09 12:07:27;;;;;;;;;;;6.20;99.90;;;;;;5061831;28;19955;-63
2023/02/09 12:09:55;;;;;;;;;;;6.40;99.90;;;;;;5066091;28;19964;-63
2023/02/09 12:12:20;;;;;;;;;;;6.60;99.90;;;;;;5061923;28;20291;-63
2023/02/09 12:14:52;;;;;;;;;;;6.40;99.90;;;;;;5069782;28;19920;-62
2023/02/09 12:17:22;;;;;;;;;;;6.50;99.90;;;;;;5062596;28;19912;-63
2023/02/09 12:19:56;;;;;;;;;;;6.60;99.90;;;;;;5071088;28;19946;-62
2023/02/09 12:22:33;;;;;;;;;;;6.50;99.90;;;;;;5068935;28;19916;-65
2023/02/09 12:25:11;;;;;;;;;;;6.40;99.90;;;;;;5067462;28;19935;-65
2023/02/09 12:27:39;;;;;;;;;;;6.60;99.90;;;;;;5064892;28;19922;-65
2023/02/09 12:30:23;;;;;;;;;;;6.90;99.90;;;;;;5068675;28;19916;-64
2023/02/09 12:32:49;;;;;;;;;;;7.20;99.90;;;;;;5063964;28;19958;-64
2023/02/09 12:35:26;;;;;;;;;;;7.40;99.90;;;;;;5070680;28;19916;-64
2023/02/09 12:38:12;;;;;;;;;;;7.50;99.90;;;;;;5066676;28;19957;-65
2023/02/09 12:40:37;;;;;;;;;;;7.40;99.90;;;;;;5065866;28;19927;-65
2023/02/09 12:43:11;;;;;;;;;;;7.30;99.90;;;;;;5068409;28;19912;-65
2023/02/09 12:45:37;;;;;;;;;;;7.60;99.90;;;;;;5069128;28;19951;-65
2023/02/09 12:48:06;;;;;;;;;;;7.90;99.90;;;;;;5068467;28;19953;-65
2023/02/09 12:50:49;;;;;;;;;;;7.60;99.90;;;;;;5068608;28;20388;-65
2023/02/09 12:53:21;;;;;;;;;;;7.60;99.90;;;;;;5058216;28;20013;-65
2023/02/09 12:55:56;;;;;;;;;;;7.70;99.90;;;;;;5068856;28;19920;-65
2023/02/09 12:58:42;;;;;;;;;;;7.40;99.90;;;;;;5069134;28;19944;-65
2023/02/09 13:01:07;;;;;;;;;;;7.00;99.90;;;;;;5055238;28;19924;-65
2023/02/09 13:03:39;;;;;;;;;;;7.40;99.90;;;;;;5065144;28;19927;-65
2023/02/09 13:06:09;;;;;;;;;;;7.40;99.90;;;;;;5072009;28;19962;-65
2023/02/09 13:08:37;;;;;;;;;;;7.30;99.90;;;;;;5071395;28;19912;-65
2023/02/09 13:11:04;;;;;;;;;;;7.50;99.90;;;;;;5070541;28;19913;-65
2023/02/09 13:13:49;;;;;;;;;;;7.80;99.90;;;;;;5070045;28;20549;-65
2023/02/09 13:16:14;;;;;;;;;;;8.00;99.90;;;;;;5064600;28;19913;-65
2023/02/09 13:18:55;;;;;;;;;;;7.60;99.90;;;;;;5072171;28;19939;-66
2023/02/09 13:21:30;;;;;;;;;;;7.70;99.90;;;;;;5067757;28;20331;-65
2023/02/09 13:24:01;;;;;;;;;;;7.90;99.90;;;;;;5069340;28;19999;-64
2023/02/09 13:26:27;;;;;;;;;;;7.90;99.90;;;;;;5069507;28;19917;-65
2023/02/09 13:29:05;;;;;;;;;;;7.90;99.90;;;;;;5065395;28;19919;-64
2023/02/09 13:31:35;;;;;;;;;;;8.10;99.90;;;;;;5068448;28;19920;-64
2023/02/09 13:34:19;;;;;;;;;;;8.00;99.90;;;;;;5067572;28;19917;-64
2023/02/09 13:37:01;;;;;;;;;;;8.00;99.90;;;;;;5067215;28;19931;-64
2023/02/09 13:39:30;;;;;;;;;;;7.70;99.90;;;;;;5076841;22;20388;-63
2023/02/09 13:41:56;;;;;;;;;;;8.00;99.90;;;;;;5051668;28;19943;-64
2023/02/09 13:44:23;;;;;;;;;;;7.90;99.90;;;;;;5045640;28;20365;-63
2023/02/09 13:46:52;;;;;;;;;;;7.80;99.90;;;;;;5043330;28;19920;-64
2023/02/09 13:49:20;;;;;;;;;;;7.60;99.90;;;;;;5055558;28;19913;-60
2023/02/09 13:51:46;;;;;;;;;;;7.70;99.90;;;;;;5065637;28;19971;-59
2023/02/09 13:54:19;;;;;;;;;;;7.80;99.90;;;;;;5071032;28;19912;-58
2023/02/09 13:56:44;;;;;;;;;;;7.90;99.90;;;;;;5057076;28;19924;-59
2023/02/09 13:59:12;;;;;;;;;;;7.60;99.90;;;;;;5059054;28;19920;-59
2023/02/09 14:01:39;;;;;;;;;;;7.90;99.90;;;;;;5069348;28;20400;-60
2023/02/09 14:04:14;;;;;;;;;;;7.70;99.90;;;;;;5068632;28;20340;-57
2023/02/09 14:06:43;;;;;;;;;;;7.70;99.90;;;;;;5064299;28;20351;-60
2023/02/09 14:09:16;;;;;;;;;;;8.10;99.90;;;;;;5067165;28;19916;-58
2023/02/09 14:11:44;;;;;;;;;;;8.20;99.90;;;;;;5067264;28;20346;-61
2023/02/09 14:16:04;;;;;;;;;;;8.20;99.90;;;;;;5070728;28;20426;-59
2023/02/09 14:17:25;;;;;;;;;;;8.00;99.90;;;;;;5061855;28;19931;-61
2023/02/09 14:19:51;;;;;;;;;;;8.10;99.90;;;;;;5064252;28;19920;-60
2023/02/09 14:22:36;;;;;;;;;;;8.10;99.90;;;;;;5072091;28;19985;-59
2023/02/09 14:25:24;;;;;;;;;;;7.80;99.90;;;;;;5067797;28;19913;-60
2023/02/09 14:27:50;;;;;;;;;;;7.90;99.90;;;;;;5061499;28;19916;-60
2023/02/09 14:30:17;;;;;;;;;;;8.00;99.90;;;;;;5069156;28;19912;-61
2023/02/09 14:32:47;;;;;;;;;;;8.10;99.90;;;;;;5070336;28;20288;-59
2023/02/09 14:35:15;;;;;;;;;;;8.20;99.90;;;;;;5048850;28;19952;-59
2023/02/09 14:37:41;;;;;;;;;;;8.10;99.90;;;;;;5065224;28;19991;-59
2023/02/09 14:40:06;;;;;;;;;;;8.20;99.90;;;;;;5051353;28;20087;-60
2023/02/09 14:42:38;;;;;;;;;;;8.20;99.90;;;;;;5067176;28;19927;-60
2023/02/09 14:45:12;;;;;;;;;;;8.00;99.90;;;;;;5067795;28;19923;-56
2023/02/09 14:47:39;;;;;;;;;;;8.10;99.90;;;;;;5066706;28;19912;-55
2023/02/09 14:50:07;;;;;;;;;;;8.00;99.90;;;;;;5065060;28;19916;-61
2023/02/09 14:52:33;;;;;;;;;;;7.80;99.90;;;;;;5062571;28;19924;-61
2023/02/09 14:55:03;;;;;;;;;;;8.00;99.90;;;;;;5068008;28;20462;-60
2023/02/09 14:57:30;;;;;;;;;;;7.70;99.90;;;;;;5064748;28;19920;-60
2023/02/09 14:59:56;;;;;;;;;;;7.60;99.90;;;;;;5070066;28;19916;-60
2023/02/09 15:02:24;;;;;;;;;;;7.50;99.90;;;;;;5068797;28;20430;-60
2023/02/09 15:04:50;;;;;;;;;;;7.50;99.90;;;;;;5060664;28;19967;-59
2023/02/09 15:07:36;;;;;;;;;;;7.40;99.90;;;;;;5065117;28;19947;-61
2023/02/09 15:10:02;;;;;;;;;;;7.30;99.90;;;;;;5068165;28;19965;-61
2023/02/09 15:12:28;;;;;;;;;;;7.20;99.90;;;;;;5066236;28;19912;-60
2023/02/09 15:14:57;;;;;;;;;;;7.20;99.90;;;;;;5067905;28;19940;-59
2023/02/09 15:17:24;;;;;;;;;;;7.20;99.90;;;;;;5069628;28;19912;-60
2023/02/09 15:19:50;;;;;;;;;;;7.30;99.90;;;;;;5069447;28;20023;-58
2023/02/09 15:22:16;;;;;;;;;;;7.20;99.90;;;;;;5068774;28;20058;-59
2023/02/09 15:24:42;;;;;;;;;;;7.20;99.90;;;;;;5073018;28;20390;-60
2023/02/09 15:27:13;;;;;;;;;;;6.90;99.90;;;;;;5067322;28;19920;-61
2023/02/09 15:29:38;;;;;;;;;;;7.00;99.90;;;;;;5069272;28;20007;-60
2023/02/09 15:32:10;;;;;;;;;;;6.80;99.90;;;;;;5069688;28;20062;-57
2023/02/09 15:34:36;;;;;;;;;;;6.90;99.90;;;;;;5064486;28;19913;-60
2023/02/09 15:37:01;;;;;;;;;;;7.00;99.90;;;;;;5062378;28;19927;-59
2023/02/09 15:39:30;;;;;;;;;;;6.70;99.90;;;;;;5065443;28;20014;-59
2023/02/09 15:50:21;;;;;;;;;;;6.60;99.90;;;;;;5051944;28;19928;-58
2023/02/09 15:52:47;;;;;;;;;;;6.30;99.90;;;;;;5068717;28;19913;-61
2023/02/09 15:55:15;;;;;;;;;;;6.10;99.90;;;;;;5066888;28;19913;-60
2023/02/09 15:57:41;;;;;;;;;;;6.00;99.90;;;;;;5065558;28;20437;-59
2023/02/09 16:00:16;;;;;;;;;;;6.00;99.90;;;;;;5028982;28;19920;-60
2023/02/09 16:02:42;;;;;;;;;;;5.80;99.90;;;;;;5066420;28;19962;-61
2023/02/09 16:05:07;;;;;;;;;;;5.70;99.90;;;;;;5063431;28;19955;-59
2023/02/09 16:07:32;;;;;;;;;;;5.60;99.90;;;;;;5071235;28;19912;-61
2023/02/09 16:09:58;;;;;;;;;;;5.40;99.90;;;;;;5068343;28;19916;-59
2023/02/09 16:12:23;;;;;;;;;;;5.40;99.90;;;;;;5055738;28;19912;-60
2023/02/09 16:14:49;;;;;;;;;;;5.30;99.90;;;;;;5049792;28;19948;-60
2023/02/09 16:17:14;;;;;;;;;;;5.20;99.90;;;;;;5061585;28;19921;-60
2023/02/09 16:19:40;;;;;;;;;;;5.10;99.90;;;;;;5064938;28;19917;-59
2023/02/09 16:22:06;;;;;;;;;;;5.00;99.90;;;;;;5060062;28;19912;-60
2023/02/09 16:24:34;;;;;;;;;;;5.10;99.90;;;;;;5062913;28;19912;-55
2023/02/09 16:27:01;;;;;;;;;;;5.00;99.90;;;;;;5059719;28;20510;-58
2023/02/09 16:29:26;;;;;;;;;;;4.80;99.90;;;;;;5058439;28;20384;-60
2023/02/09 16:31:52;;;;;;;;;;;4.60;99.90;;;;;;5055529;28;19939;-57
2023/02/09 16:34:17;;;;;;;;;;;4.40;99.90;;;;;;5061666;28;19921;-59
2023/02/09 16:36:43;;;;;;;;;;;4.40;99.90;;;;;;5066724;28;19921;-60
2023/02/09 16:39:18;;;;;;;;;;;4.30;99.90;;;;;;5064799;28;19967;-58
2023/02/09 16:41:49;;;;;;;;;;;4.20;99.90;;;;;;5050873;28;19974;-60
2023/02/09 16:44:15;;;;;;;;;;;4.00;99.90;;;;;;5066843;28;19913;-60
2023/02/09 16:46:40;;;;;;;;;;;3.80;99.90;;;;;;5067417;28;19913;-57
2023/02/09 16:49:09;;;;;;;;;;;3.70;99.90;;;;;;5059799;28;19913;-57
2023/02/09 16:51:35;;;;;;;;;;;3.50;99.90;;;;;;5059491;28;19924;-59
2023/02/09 16:54:00;;;;;;;;;;;3.60;99.90;;;;;;5068357;28;19917;-58
2023/02/09 16:56:26;;;;;;;;;;;3.40;99.90;;;;;;5067593;28;19917;-59
2023/02/09 16:58:52;;;;;;;;;;;3.50;99.90;;;;;;5068065;28;19913;-57
2023/02/09 17:01:19;;;;;;;;;;;3.60;99.90;;;;;;5066898;28;20483;-59
2023/02/09 17:03:51;;;;;;;;;;;3.50;99.90;;;;;;5065653;28;19923;-60
2023/02/09 17:06:19;;;;;;;;;;;3.50;99.90;;;;;;5064083;28;19916;-58
2023/02/09 17:08:44;;;;;;;;;;;3.40;99.90;;;;;;5063847;28;20034;-58
2023/02/09 17:11:20;;;;;;;;;;;3.10;99.90;;;;;;5058084;28;19979;-60
2023/02/09 17:13:46;;;;;;;;;;;2.90;99.90;;;;;;5062369;28;19927;-59
2023/02/09 17:16:22;;;;;;;;;;;2.70;99.90;;;;;;5062663;28;20329;-60
2023/02/09 17:18:49;;;;;;;;;;;2.70;99.90;;;;;;5055527;28;19996;-60
2023/02/09 17:21:20;;;;;;;;;;;2.70;99.90;;;;;;5053690;28;19963;-57
2023/02/09 17:23:45;;;;;;;;;;;2.60;99.90;;;;;;5062852;28;19912;-59
2023/02/09 17:26:11;;;;;;;;;;;2.50;99.90;;;;;;5054917;28;19920;-59
2023/02/09 17:28:37;;;;;;;;;;;2.60;99.90;;;;;;5066988;28;19919;-57
2023/02/09 17:31:08;;;;;;;;;;;2.60;99.90;;;;;;5060607;28;19959;-58
2023/02/09 17:33:34;;;;;;;;;;;2.60;99.90;;;;;;5059837;28;19923;-60
2023/02/09 17:36:00;;;;;;;;;;;2.60;99.90;;;;;;5064503;28;20007;-59
2023/02/09 17:38:29;;;;;;;;;;;2.40;99.90;;;;;;5051599;28;20031;-60
2023/02/09 17:40:55;;;;;;;;;;;2.20;99.90;;;;;;5057558;28;20280;-58
2023/02/09 17:43:21;;;;;;;;;;;2.00;99.90;;;;;;5065706;28;19959;-58
2023/02/09 17:45:49;;;;;;;;;;;2.10;99.90;;;;;;5065696;28;19997;-59
2023/02/09 17:48:15;;;;;;;;;;;1.80;99.90;;;;;;5065002;28;19995;-60
2023/02/09 17:50:47;;;;;;;;;;;1.70;99.90;;;;;;5065964;28;20011;-60
2023/02/09 17:53:15;;;;;;;;;;;1.50;99.90;;;;;;5056178;28;20339;-57
2023/02/09 17:55:41;;;;;;;;;;;1.40;99.90;;;;;;5066186;28;19919;-58
2023/02/09 17:58:06;;;;;;;;;;;1.50;99.90;;;;;;5061879;28;19917;-60
2023/02/09 18:00:32;;;;;;;;;;;1.40;99.90;;;;;;5067236;28;19970;-58
2023/02/09 18:02:57;;;;;;;;;;;1.20;99.90;;;;;;5058883;28;19909;-58
2023/02/09 18:05:24;;;;;;;;;;;1.20;99.90;;;;;;5058445;28;19912;-59
2023/02/09 18:07:49;;;;;;;;;;;1.20;99.90;;;;;;5061701;28;20024;-59
2023/02/09 18:10:15;;;;;;;;;;;1.20;99.90;;;;;;5063701;28;19919;-59
2023/02/09 18:12:41;;;;;;;;;;;1.30;99.90;;;;;;5058037;28;19958;-57
2023/02/09 18:15:13;;;;;;;;;;;1.20;99.90;;;;;;5058673;28;20015;-59
2023/02/09 18:17:41;;;;;;;;;;;1.30;99.90;;;;;;5062996;28;19920;-58
2023/02/09 18:20:14;;;;;;;;;;;1.30;99.90;;;;;;5059095;28;19917;-59
2023/02/09 18:22:41;;;;;;;;;;;1.10;99.90;;;;;;5065735;28;19923;-59
2023/02/09 18:25:13;;;;;;;;;;;1.10;99.90;;;;;;5057896;28;19927;-58
2023/02/09 18:27:38;;;;;;;;;;;1.00;99.90;;;;;;5061021;28;19912;-57
2023/02/09 18:30:04;;;;;;;;;;;0.70;99.90;;;;;;5068652;28;20288;-57
2023/02/09 18:32:29;;;;;;;;;;;0.70;99.90;;;;;;5068840;28;19939;-58
2023/02/09 18:34:55;;;;;;;;;;;0.70;99.90;;;;;;5061120;28;19958;-54
2023/02/09 18:37:20;;;;;;;;;;;0.60;99.90;;;;;;5063797;28;19981;-56
2023/02/09 18:39:46;;;;;;;;;;;0.50;99.90;;;;;;5061839;28;19924;-58
2023/02/09 18:42:13;;;;;;;;;;;0.50;99.90;;;;;;5066284;28;19913;-59
2023/02/09 18:44:38;;;;;;;;;;;0.60;99.90;;;;;;5064941;28;19916;-57
2023/02/09 18:47:04;;;;;;;;;;;0.60;99.90;;;;;;5062871;28;20364;-59
2023/02/09 18:49:30;;;;;;;;;;;0.80;99.90;;;;;;5067689;28;20414;-61
2023/02/09 18:51:57;;;;;;;;;;;0.70;99.90;;;;;;5065913;28;19912;-57
2023/02/09 18:54:22;;;;;;;;;;;0.70;99.90;;;;;;5063950;28;19920;-59
2023/02/09 18:56:48;;;;;;;;;;;0.60;99.90;;;;;;5062279;28;20420;-60
2023/02/09 18:59:16;;;;;;;;;;;0.50;99.90;;;;;;5064915;28;20038;-58
2023/02/09 19:01:42;;;;;;;;;;;0.40;99.90;;;;;;5061785;28;19917;-60
2023/02/09 19:04:07;;;;;;;;;;;0.50;99.90;;;;;;5063882;28;19924;-61
2023/02/09 19:06:34;;;;;;;;;;;0.50;99.90;;;;;;5065507;28;20565;-60
2023/02/09 19:09:00;;;;;;;;;;;0.50;99.90;;;;;;5060100;28;19923;-58
2023/02/09 19:11:26;;;;;;;;;;;;;;;;;;5062913;28;19913;-60
2023/02/09 19:16:36;;;;;;;;;;;0.50;99.90;;;;;;5064091;28;19918;-59
2023/02/09 19:19:01;;;;;;;;;;;0.30;99.90;;;;;;5058360;28;20298;-60
2023/02/09 19:21:27;;;;;;;;;;;0.30;99.90;;;;;;5063156;28;19917;-60
2023/02/09 19:23:53;;;;;;;;;;;0.40;99.90;;;;;;5059051;28;20400;-58
2023/02/09 19:26:18;;;;;;;;;;;0.50;99.90;;;;;;5067700;28;19916;-60
2023/02/09 19:28:44;;;;;;;;;;;0.70;99.90;;;;;;5059661;28;20438;-60
2023/02/09 19:31:13;;;;;;;;;;;0.80;99.90;;;;;;5061600;28;19920;-65
2023/02/09 19:33:38;;;;;;;;;;;0.90;99.90;;;;;;5061326;28;20144;-65
2023/02/09 19:36:04;;;;;;;;;;;0.90;99.90;;;;;;5058314;28;20352;-65
2023/02/09 19:38:30;;;;;;;;;;;0.80;99.90;;;;;;5058207;28;19928;-64
2023/02/09 19:41:01;;;;;;;;;;;0.80;99.90;;;;;;5067027;28;19920;-64
2023/02/09 19:43:26;;;;;;;;;;;0.70;99.90;;;;;;5059328;28;19921;-65
2023/02/09 19:45:57;;;;;;;;;;;0.60;99.90;;;;;;5068005;28;20360;-65
2023/02/09 19:48:23;;;;;;;;;;;0.60;99.90;;;;;;5064003;28;20225;-66
2023/02/09 19:50:53;;;;;;;;;;;0.60;99.90;;;;;;5063998;28;20383;-65
2023/02/09 19:53:18;;;;;;;;;;;0.70;99.90;;;;;;5063412;28;19916;-63
2023/02/09 19:55:47;;;;;;;;;;;0.80;99.90;;;;;;5059550;28;19920;-64
2023/02/09 19:58:12;;;;;;;;;;;0.80;99.90;;;;;;5057847;28;20383;-64
2023/02/09 20:00:38;;;;;;;;;;;0.90;99.90;;;;;;5066429;28;20180;-65
2023/02/09 20:03:03;;;;;;;;;;;1.00;99.90;;;;;;5077949;23;19959;-64
2023/02/09 20:05:29;;;;;;;;;;;1.10;99.90;;;;;;5079031;28;20401;-67
2023/02/09 20:07:55;;;;;;;;;;;1.10;99.90;;;;;;5080161;28;19915;-65
2023/02/09 20:10:22;;;;;;;;;;;1.10;99.90;;;;;;5083780;28;19920;-66
2023/02/09 20:12:48;;;;;;;;;;;1.10;99.90;;;;;;5079245;28;19934;-66
2023/02/09 20:15:14;;;;;;;;;;;1.20;99.90;;;;;;5079222;28;20311;-66